KTA weather

Karratha Airport
Karratha, Western Australia, Australia

Public forecast

Using degrees Celsius for public forecast. Weather courtesy of forecast.io.

METAR (pilot weather report)

Closest report is Barrow Island Airport, 77.3 nm (143.1 km) W. Retrieved 2019/03/20 23:00 UTC (4 minutes ago):

YBWX 202300Z AUTO 20011KT //// // ////// 29/23 Q1006

TAF (pilot weather forecast)

Forecast is more than 12 hours old.

Closest forecast is Port Hedland International Airport, 106.1 nm (196.5 km) E. Retrieved 2019/03/20 06:36 UTC (16 hours ago):

TAF YPPD 200528Z 2006/2106 02015KT CAVOK FM201000 03010KT CAVOK FM201600 09007KT CAVOK FM202000 12008KT CAVOK FM210000 06015KT CAVOK